sensor_id;sensor_type;location;lat;lon;timestamp;temperature;humidity
10123;DHT22;5101;49.038;8.710;2022-12-20T00:00:50;3.70;99.90
10123;DHT22;5101;49.038;8.710;2022-12-20T00:03:15;3.70;99.90
10123;DHT22;5101;49.038;8.710;2022-12-20T00:05:42;3.70;99.90
10123;DHT22;5101;49.038;8.710;2022-12-20T00:08:08;3.80;99.90
10123;DHT22;5101;49.038;8.710;2022-12-20T00:10:35;3.80;99.90
10123;DHT22;5101;49.038;8.710;2022-12-20T00:13:01;3.90;99.90
10123;DHT22;5101;49.038;8.710;2022-12-20T00:15:26;3.80;99.90
10123;DHT22;5101;49.038;8.710;2022-12-20T00:17:52;3.80;99.90
10123;DHT22;5101;49.038;8.710;2022-12-20T00:20:17;3.80;99.90
10123;DHT22;5101;49.038;8.710;2022-12-20T00:22:43;3.80;99.90
10123;DHT22;5101;49.038;8.710;2022-12-20T00:25:09;3.80;99.90
10123;DHT22;5101;49.038;8.710;2022-12-20T00:27:34;3.80;99.90
10123;DHT22;5101;49.038;8.710;2022-12-20T00:29:59;3.80;99.90
10123;DHT22;5101;49.038;8.710;2022-12-20T00:32:26;3.80;99.90
10123;DHT22;5101;49.038;8.710;2022-12-20T00:34:52;3.80;99.90
10123;DHT22;5101;49.038;8.710;2022-12-20T00:37:17;3.80;99.90
10123;DHT22;5101;49.038;8.710;2022-12-20T00:39:43;3.80;99.90
10123;DHT22;5101;49.038;8.710;2022-12-20T00:42:08;3.90;99.90
10123;DHT22;5101;49.038;8.710;2022-12-20T00:44:35;3.90;99.90
10123;DHT22;5101;49.038;8.710;2022-12-20T00:47:00;4.00;99.90
10123;DHT22;5101;49.038;8.710;2022-12-20T00:49:26;3.90;99.90
10123;DHT22;5101;49.038;8.710;2022-12-20T00:51:51;4.00;99.90
10123;DHT22;5101;49.038;8.710;2022-12-20T00:54:17;4.00;99.90
10123;DHT22;5101;49.038;8.710;2022-12-20T00:56:42;4.00;99.90
10123;DHT22;5101;49.038;8.710;2022-12-20T00:59:08;4.10;99.90
10123;DHT22;5101;49.038;8.710;2022-12-20T01:01:33;4.10;99.90
10123;DHT22;5101;49.038;8.710;2022-12-20T01:03:59;4.10;99.90
10123;DHT22;5101;49.038;8.710;2022-12-20T01:06:29;4.10;99.90
10123;DHT22;5101;49.038;8.710;2022-12-20T01:08:55;4.10;99.90
10123;DHT22;5101;49.038;8.710;2022-12-20T01:11:23;4.20;99.90
10123;DHT22;5101;49.038;8.710;2022-12-20T01:13:52;4.20;99.90
10123;DHT22;5101;49.038;8.710;2022-12-20T01:16:24;4.20;99.90
10123;DHT22;5101;49.038;8.710;2022-12-20T01:18:50;4.30;99.90
10123;DHT22;5101;49.038;8.710;2022-12-20T01:21:18;4.30;99.90
10123;DHT22;5101;49.038;8.710;2022-12-20T01:23:44;4.30;99.90
10123;DHT22;5101;49.038;8.710;2022-12-20T01:26:12;4.40;99.90
10123;DHT22;5101;49.038;8.710;2022-12-20T01:28:41;4.40;99.90
10123;DHT22;5101;49.038;8.710;2022-12-20T01:31:08;4.40;99.90
10123;DHT22;5101;49.038;8.710;2022-12-20T01:33:34;4.50;99.90
10123;DHT22;5101;49.038;8.710;2022-12-20T01:36:04;4.50;99.90
10123;DHT22;5101;49.038;8.710;2022-12-20T01:38:30;4.50;99.90
10123;DHT22;5101;49.038;8.710;2022-12-20T01:40:56;4.50;99.90
10123;DHT22;5101;49.038;8.710;2022-12-20T01:43:23;4.60;99.90
10123;DHT22;5101;49.038;8.710;2022-12-20T01:45:50;4.60;99.90
10123;DHT22;5101;49.038;8.710;2022-12-20T01:48:20;4.60;99.90
10123;DHT22;5101;49.038;8.710;2022-12-20T01:50:47;4.60;99.90
10123;DHT22;5101;49.038;8.710;2022-12-20T01:53:14;4.60;99.90
10123;DHT22;5101;49.038;8.710;2022-12-20T01:55:40;4.80;99.90
10123;DHT22;5101;49.038;8.710;2022-12-20T01:58:12;4.60;99.90
10123;DHT22;5101;49.038;8.710;2022-12-20T02:00:38;4.70;99.90
10123;DHT22;5101;49.038;8.710;2022-12-20T02:03:06;4.70;99.90
10123;DHT22;5101;49.038;8.710;2022-12-20T02:05:35;4.70;99.90
10123;DHT22;5101;49.038;8.710;2022-12-20T02:08:01;5.00;99.90
10123;DHT22;5101;49.038;8.710;2022-12-20T02:16:06;4.80;99.90
10123;DHT22;5101;49.038;8.710;2022-12-20T02:18:44;4.80;99.90
10123;DHT22;5101;49.038;8.710;2022-12-20T02:27:15;4.90;99.90
10123;DHT22;5101;49.038;8.710;2022-12-20T02:30:05;4.90;99.90
10123;DHT22;5101;49.038;8.710;2022-12-20T02:35:19;5.00;99.90
10123;DHT22;5101;49.038;8.710;2022-12-20T02:37:48;4.90;99.90
10123;DHT22;5101;49.038;8.710;2022-12-20T02:40:14;5.00;99.90
10123;DHT22;5101;49.038;8.710;2022-12-20T02:42:42;5.00;99.90
10123;DHT22;5101;49.038;8.710;2022-12-20T02:45:09;4.90;99.90
10123;DHT22;5101;49.038;8.710;2022-12-20T02:48:01;5.00;99.90
10123;DHT22;5101;49.038;8.710;2022-12-20T02:50:33;5.00;99.90
10123;DHT22;5101;49.038;8.710;2022-12-20T02:53:00;5.10;99.90
10123;DHT22;5101;49.038;8.710;2022-12-20T02:55:41;5.00;99.90
10123;DHT22;5101;49.038;8.710;2022-12-20T02:58:20;5.00;99.90
10123;DHT22;5101;49.038;8.710;2022-12-20T03:00:48;5.00;99.90
10123;DHT22;5101;49.038;8.710;2022-12-20T03:03:15;5.10;99.90
10123;DHT22;5101;49.038;8.710;2022-12-20T03:05:48;5.10;99.90
10123;DHT22;5101;49.038;8.710;2022-12-20T03:08:14;5.00;99.90
10123;DHT22;5101;49.038;8.710;2022-12-20T03:10:40;5.10;99.90
10123;DHT22;5101;49.038;8.710;2022-12-20T03:13:05;5.20;99.90
10123;DHT22;5101;49.038;8.710;2022-12-20T03:15:31;5.10;99.90
10123;DHT22;5101;49.038;8.710;2022-12-20T03:17:57;5.10;99.90
10123;DHT22;5101;49.038;8.710;2022-12-20T03:20:23;5.30;99.90
10123;DHT22;5101;49.038;8.710;2022-12-20T03:22:49;5.20;99.90
10123;DHT22;5101;49.038;8.710;2022-12-20T03:25:15;5.20;99.90
10123;DHT22;5101;49.038;8.710;2022-12-20T03:27:40;5.10;99.90
10123;DHT22;5101;49.038;8.710;2022-12-20T03:30:06;5.10;99.90
10123;DHT22;5101;49.038;8.710;2022-12-20T03:32:32;5.10;99.90
10123;DHT22;5101;49.038;8.710;2022-12-20T03:34:57;5.10;99.90
10123;DHT22;5101;49.038;8.710;2022-12-20T03:37:23;5.20;99.90
10123;DHT22;5101;49.038;8.710;2022-12-20T03:39:48;5.10;99.90
10123;DHT22;5101;49.038;8.710;2022-12-20T03:42:14;5.10;99.90
10123;DHT22;5101;49.038;8.710;2022-12-20T03:44:40;5.30;99.90
10123;DHT22;5101;49.038;8.710;2022-12-20T03:47:06;5.20;99.90
10123;DHT22;5101;49.038;8.710;2022-12-20T03:49:31;5.20;99.90
10123;DHT22;5101;49.038;8.710;2022-12-20T03:51:57;5.20;99.90
10123;DHT22;5101;49.038;8.710;2022-12-20T03:54:22;5.20;99.90
10123;DHT22;5101;49.038;8.710;2022-12-20T03:56:48;5.30;99.90
10123;DHT22;5101;49.038;8.710;2022-12-20T03:59:13;5.30;99.90
10123;DHT22;5101;49.038;8.710;2022-12-20T04:01:39;5.30;99.90
10123;DHT22;5101;49.038;8.710;2022-12-20T04:04:04;5.40;99.90
10123;DHT22;5101;49.038;8.710;2022-12-20T04:06:30;5.40;99.90
10123;DHT22;5101;49.038;8.710;2022-12-20T04:08:55;5.40;99.90
10123;DHT22;5101;49.038;8.710;2022-12-20T04:11:21;5.50;99.90
10123;DHT22;5101;49.038;8.710;2022-12-20T04:13:49;5.50;99.90
10123;DHT22;5101;49.038;8.710;2022-12-20T04:16:17;5.50;99.90
10123;DHT22;5101;49.038;8.710;2022-12-20T04:18:43;5.50;99.90
10123;DHT22;5101;49.038;8.710;2022-12-20T04:21:09;5.80;99.90
10123;DHT22;5101;49.038;8.710;2022-12-20T04:23:37;5.60;99.90
10123;DHT22;5101;49.038;8.710;2022-12-20T04:26:05;5.60;99.90
10123;DHT22;5101;49.038;8.710;2022-12-20T04:28:31;5.60;99.90
10123;DHT22;5101;49.038;8.710;2022-12-20T04:30:57;5.70;99.90
10123;DHT22;5101;49.038;8.710;2022-12-20T04:33:23;5.60;99.90
10123;DHT22;5101;49.038;8.710;2022-12-20T04:35:50;5.60;99.90
10123;DHT22;5101;49.038;8.710;2022-12-20T04:38:17;5.60;99.90
10123;DHT22;5101;49.038;8.710;2022-12-20T04:40:42;5.70;99.90
10123;DHT22;5101;49.038;8.710;2022-12-20T04:43:08;5.80;99.90
10123;DHT22;5101;49.038;8.710;2022-12-20T04:45:34;5.60;99.90
10123;DHT22;5101;49.038;8.710;2022-12-20T04:48:00;5.80;99.90
10123;DHT22;5101;49.038;8.710;2022-12-20T04:50:25;5.60;99.90
10123;DHT22;5101;49.038;8.710;2022-12-20T04:52:51;5.80;99.90
10123;DHT22;5101;49.038;8.710;2022-12-20T04:55:39;5.80;99.90
10123;DHT22;5101;49.038;8.710;2022-12-20T04:58:06;5.60;99.90
10123;DHT22;5101;49.038;8.710;2022-12-20T05:00:32;5.80;99.90
10123;DHT22;5101;49.038;8.710;2022-12-20T05:02:58;5.80;99.90
10123;DHT22;5101;49.038;8.710;2022-12-20T05:05:23;5.70;99.90
10123;DHT22;5101;49.038;8.710;2022-12-20T05:07:49;5.70;99.90
10123;DHT22;5101;49.038;8.710;2022-12-20T05:10:15;5.90;99.90
10123;DHT22;5101;49.038;8.710;2022-12-20T05:12:40;5.70;99.90
10123;DHT22;5101;49.038;8.710;2022-12-20T05:15:06;5.70;99.90
10123;DHT22;5101;49.038;8.710;2022-12-20T05:17:33;5.70;99.90
10123;DHT22;5101;49.038;8.710;2022-12-20T05:19:58;5.80;99.90
10123;DHT22;5101;49.038;8.710;2022-12-20T05:22:24;5.90;99.90
10123;DHT22;5101;49.038;8.710;2022-12-20T05:25:12;6.00;99.90
10123;DHT22;5101;49.038;8.710;2022-12-20T05:27:56;6.00;99.90
10123;DHT22;5101;49.038;8.710;2022-12-20T05:30:23;6.10;99.90
10123;DHT22;5101;49.038;8.710;2022-12-20T05:32:49;5.90;99.90
10123;DHT22;5101;49.038;8.710;2022-12-20T05:35:14;5.80;99.90
10123;DHT22;5101;49.038;8.710;2022-12-20T05:37:40;6.00;99.90
10123;DHT22;5101;49.038;8.710;2022-12-20T05:40:06;5.80;99.90
10123;DHT22;5101;49.038;8.710;2022-12-20T05:42:31;5.80;99.90
10123;DHT22;5101;49.038;8.710;2022-12-20T05:44:57;5.80;99.90
10123;DHT22;5101;49.038;8.710;2022-12-20T05:47:22;5.80;99.90
10123;DHT22;5101;49.038;8.710;2022-12-20T05:49:49;5.90;99.90
10123;DHT22;5101;49.038;8.710;2022-12-20T05:52:14;5.90;99.90
10123;DHT22;5101;49.038;8.710;2022-12-20T05:54:40;5.90;99.90
10123;DHT22;5101;49.038;8.710;2022-12-20T05:57:05;6.00;99.90
10123;DHT22;5101;49.038;8.710;2022-12-20T05:59:31;6.00;99.90
10123;DHT22;5101;49.038;8.710;2022-12-20T06:01:56;5.90;99.90
10123;DHT22;5101;49.038;8.710;2022-12-20T06:04:22;5.90;99.90
10123;DHT22;5101;49.038;8.710;2022-12-20T06:06:47;5.90;99.90
10123;DHT22;5101;49.038;8.710;2022-12-20T06:09:12;5.80;99.90
10123;DHT22;5101;49.038;8.710;2022-12-20T06:11:38;5.90;99.90
10123;DHT22;5101;49.038;8.710;2022-12-20T06:14:04;5.80;99.90
10123;DHT22;5101;49.038;8.710;2022-12-20T06:16:29;5.90;99.90
10123;DHT22;5101;49.038;8.710;2022-12-20T06:18:55;6.00;99.90
10123;DHT22;5101;49.038;8.710;2022-12-20T06:21:21;5.90;99.90
10123;DHT22;5101;49.038;8.710;2022-12-20T06:23:47;5.90;99.90
10123;DHT22;5101;49.038;8.710;2022-12-20T06:26:12;5.90;99.90
10123;DHT22;5101;49.038;8.710;2022-12-20T06:28:38;5.80;99.90
10123;DHT22;5101;49.038;8.710;2022-12-20T06:31:10;5.90;99.90
10123;DHT22;5101;49.038;8.710;2022-12-20T06:33:36;5.90;99.90
10123;DHT22;5101;49.038;8.710;2022-12-20T06:36:02;5.90;99.90
10123;DHT22;5101;49.038;8.710;2022-12-20T06:38:28;5.90;99.90
10123;DHT22;5101;49.038;8.710;2022-12-20T06:40:53;5.90;99.90
10123;DHT22;5101;49.038;8.710;2022-12-20T06:43:19;5.90;99.90
10123;DHT22;5101;49.038;8.710;2022-12-20T06:45:44;5.90;99.90
10123;DHT22;5101;49.038;8.710;2022-12-20T06:48:10;6.00;99.90
10123;DHT22;5101;49.038;8.710;2022-12-20T06:50:37;6.00;99.90
10123;DHT22;5101;49.038;8.710;2022-12-20T06:53:02;6.10;99.90
10123;DHT22;5101;49.038;8.710;2022-12-20T06:55:28;6.00;99.90
10123;DHT22;5101;49.038;8.710;2022-12-20T06:57:53;5.90;99.90
10123;DHT22;5101;49.038;8.710;2022-12-20T07:00:21;6.10;99.90
10123;DHT22;5101;49.038;8.710;2022-12-20T07:02:46;6.00;99.90
10123;DHT22;5101;49.038;8.710;2022-12-20T07:05:12;6.10;99.90
10123;DHT22;5101;49.038;8.710;2022-12-20T07:07:37;5.90;99.90
10123;DHT22;5101;49.038;8.710;2022-12-20T07:10:03;5.90;99.90
10123;DHT22;5101;49.038;8.710;2022-12-20T07:12:29;5.90;99.90
10123;DHT22;5101;49.038;8.710;2022-12-20T07:14:54;6.00;99.90
10123;DHT22;5101;49.038;8.710;2022-12-20T07:17:20;6.00;99.90
10123;DHT22;5101;49.038;8.710;2022-12-20T07:19:45;5.90;99.90
10123;DHT22;5101;49.038;8.710;2022-12-20T07:22:11;6.00;99.90
10123;DHT22;5101;49.038;8.710;2022-12-20T07:24:37;6.00;99.90
10123;DHT22;5101;49.038;8.710;2022-12-20T07:27:03;6.00;99.90
10123;DHT22;5101;49.038;8.710;2022-12-20T07:29:29;6.20;99.90
10123;DHT22;5101;49.038;8.710;2022-12-20T07:31:54;6.00;99.90
10123;DHT22;5101;49.038;8.710;2022-12-20T07:34:20;6.00;99.90
10123;DHT22;5101;49.038;8.710;2022-12-20T07:36:45;6.00;99.90
10123;DHT22;5101;49.038;8.710;2022-12-20T07:39:11;6.10;99.90
10123;DHT22;5101;49.038;8.710;2022-12-20T07:41:36;6.10;99.90
10123;DHT22;5101;49.038;8.710;2022-12-20T07:44:02;6.00;99.90
10123;DHT22;5101;49.038;8.710;2022-12-20T07:46:28;6.10;99.90
10123;DHT22;5101;49.038;8.710;2022-12-20T07:48:54;6.20;99.90
10123;DHT22;5101;49.038;8.710;2022-12-20T07:51:24;6.10;99.90
10123;DHT22;5101;49.038;8.710;2022-12-20T07:53:53;6.20;99.90
10123;DHT22;5101;49.038;8.710;2022-12-20T07:56:21;6.30;99.90
10123;DHT22;5101;49.038;8.710;2022-12-20T07:58:49;6.30;99.90
10123;DHT22;5101;49.038;8.710;2022-12-20T08:01:15;6.30;99.90
10123;DHT22;5101;49.038;8.710;2022-12-20T08:03:47;6.20;99.90
10123;DHT22;5101;49.038;8.710;2022-12-20T08:06:14;6.30;99.90
10123;DHT22;5101;49.038;8.710;2022-12-20T08:08:48;6.20;99.90
10123;DHT22;5101;49.038;8.710;2022-12-20T08:11:16;6.20;99.90
10123;DHT22;5101;49.038;8.710;2022-12-20T08:13:42;6.20;99.90
10123;DHT22;5101;49.038;8.710;2022-12-20T08:16:08;6.30;99.90
10123;DHT22;5101;49.038;8.710;2022-12-20T08:18:33;6.20;99.90
10123;DHT22;5101;49.038;8.710;2022-12-20T08:20:59;6.20;99.90
10123;DHT22;5101;49.038;8.710;2022-12-20T08:23:25;6.20;99.90
10123;DHT22;5101;49.038;8.710;2022-12-20T08:25:50;6.30;99.90
10123;DHT22;5101;49.038;8.710;2022-12-20T08:28:16;6.20;99.90
10123;DHT22;5101;49.038;8.710;2022-12-20T08:30:41;6.20;99.90
10123;DHT22;5101;49.038;8.710;2022-12-20T08:33:07;6.20;99.90
10123;DHT22;5101;49.038;8.710;2022-12-20T08:35:33;6.20;99.90
10123;DHT22;5101;49.038;8.710;2022-12-20T08:37:58;6.40;99.90
10123;DHT22;5101;49.038;8.710;2022-12-20T08:40:24;6.30;99.90
10123;DHT22;5101;49.038;8.710;2022-12-20T08:42:49;6.30;99.90
10123;DHT22;5101;49.038;8.710;2022-12-20T08:45:15;6.40;99.90
10123;DHT22;5101;49.038;8.710;2022-12-20T08:47:40;6.40;99.90
10123;DHT22;5101;49.038;8.710;2022-12-20T08:50:06;6.60;99.90
10123;DHT22;5101;49.038;8.710;2022-12-20T08:52:32;6.50;99.90
10123;DHT22;5101;49.038;8.710;2022-12-20T08:54:57;6.50;99.90
10123;DHT22;5101;49.038;8.710;2022-12-20T08:57:23;6.50;99.90
10123;DHT22;5101;49.038;8.710;2022-12-20T08:59:48;6.60;99.90
10123;DHT22;5101;49.038;8.710;2022-12-20T09:02:14;6.60;99.90
10123;DHT22;5101;49.038;8.710;2022-12-20T09:04:39;6.60;99.90
10123;DHT22;5101;49.038;8.710;2022-12-20T09:07:05;6.70;99.90
10123;DHT22;5101;49.038;8.710;2022-12-20T09:09:30;6.80;99.90
10123;DHT22;5101;49.038;8.710;2022-12-20T09:11:57;6.90;99.90
10123;DHT22;5101;49.038;8.710;2022-12-20T09:14:23;7.00;99.90
10123;DHT22;5101;49.038;8.710;2022-12-20T09:16:48;6.90;99.90
10123;DHT22;5101;49.038;8.710;2022-12-20T09:19:14;7.00;99.90
10123;DHT22;5101;49.038;8.710;2022-12-20T09:21:39;7.00;99.90
10123;DHT22;5101;49.038;8.710;2022-12-20T09:24:05;7.10;99.90
10123;DHT22;5101;49.038;8.710;2022-12-20T09:26:31;7.10;99.90
10123;DHT22;5101;49.038;8.710;2022-12-20T09:28:59;7.20;99.90
10123;DHT22;5101;49.038;8.710;2022-12-20T09:31:26;7.30;99.90
10123;DHT22;5101;49.038;8.710;2022-12-20T09:33:56;7.30;99.90
10123;DHT22;5101;49.038;8.710;2022-12-20T09:36:23;7.30;99.90
10123;DHT22;5101;49.038;8.710;2022-12-20T09:38:49;7.40;99.90
10123;DHT22;5101;49.038;8.710;2022-12-20T09:41:31;7.40;99.90
10123;DHT22;5101;49.038;8.710;2022-12-20T09:44:00;7.50;99.90
10123;DHT22;5101;49.038;8.710;2022-12-20T09:46:28;7.50;99.90
10123;DHT22;5101;49.038;8.710;2022-12-20T09:48:54;7.60;99.90
10123;DHT22;5101;49.038;8.710;2022-12-20T09:54:21;7.70;99.90
10123;DHT22;5101;49.038;8.710;2022-12-20T09:59:47;7.80;99.90
10123;DHT22;5101;49.038;8.710;2022-12-20T10:02:19;7.90;99.90
10123;DHT22;5101;49.038;8.710;2022-12-20T10:04:45;7.90;99.90
10123;DHT22;5101;49.038;8.710;2022-12-20T10:07:21;8.00;99.90
10123;DHT22;5101;49.038;8.710;2022-12-20T10:12:59;8.10;99.90
10123;DHT22;5101;49.038;8.710;2022-12-20T10:18:16;8.20;99.90
10123;DHT22;5101;49.038;8.710;2022-12-20T10:20:55;8.30;99.90
10123;DHT22;5101;49.038;8.710;2022-12-20T10:23:39;8.30;99.90
10123;DHT22;5101;49.038;8.710;2022-12-20T10:26:11;8.40;99.90
10123;DHT22;5101;49.038;8.710;2022-12-20T10:28:37;8.40;99.90
10123;DHT22;5101;49.038;8.710;2022-12-20T10:31:07;8.40;99.90
10123;DHT22;5101;49.038;8.710;2022-12-20T10:33:35;8.50;99.90
10123;DHT22;5101;49.038;8.710;2022-12-20T10:36:22;8.50;99.90
10123;DHT22;5101;49.038;8.710;2022-12-20T10:38:51;8.60;99.90
10123;DHT22;5101;49.038;8.710;2022-12-20T10:41:20;8.60;99.90
10123;DHT22;5101;49.038;8.710;2022-12-20T10:46:55;8.70;99.90
10123;DHT22;5101;49.038;8.710;2022-12-20T10:52:01;8.80;99.90
10123;DHT22;5101;49.038;8.710;2022-12-20T10:54:33;8.80;99.90
10123;DHT22;5101;49.038;8.710;2022-12-20T11:02:27;9.00;99.90
10123;DHT22;5101;49.038;8.710;2022-12-20T11:07:52;9.00;99.90
10123;DHT22;5101;49.038;8.710;2022-12-20T11:10:28;9.00;99.90
10123;DHT22;5101;49.038;8.710;2022-12-20T11:12:56;9.10;99.90
10123;DHT22;5101;49.038;8.710;2022-12-20T11:15:33;9.00;99.90
10123;DHT22;5101;49.038;8.710;2022-12-20T11:18:12;9.10;99.90
10123;DHT22;5101;49.038;8.710;2022-12-20T11:20:50;9.10;99.90
10123;DHT22;5101;49.038;8.710;2022-12-20T11:23:28;9.10;99.90
10123;DHT22;5101;49.038;8.710;2022-12-20T11:26:29;9.20;99.90
10123;DHT22;5101;49.038;8.710;2022-12-20T11:29:28;9.20;99.90
10123;DHT22;5101;49.038;8.710;2022-12-20T11:39:56;9.20;99.90
10123;DHT22;5101;49.038;8.710;2022-12-20T11:45:14;9.20;99.90
10123;DHT22;5101;49.038;8.710;2022-12-20T11:53:07;9.30;99.90
10123;DHT22;5101;49.038;8.710;2022-12-20T11:55:36;9.30;99.90
10123;DHT22;5101;49.038;8.710;2022-12-20T11:58:12;9.30;99.90
10123;DHT22;5101;49.038;8.710;2022-12-20T12:00:44;9.30;99.90
10123;DHT22;5101;49.038;8.710;2022-12-20T12:05:53;9.40;99.90
10123;DHT22;5101;49.038;8.710;2022-12-20T12:08:31;9.40;99.90
10123;DHT22;5101;49.038;8.710;2022-12-20T12:11:05;9.40;99.90
10123;DHT22;5101;49.038;8.710;2022-12-20T12:13:35;9.40;99.90
10123;DHT22;5101;49.038;8.710;2022-12-20T12:16:54;9.40;99.90
10123;DHT22;5101;49.038;8.710;2022-12-20T12:19:01;9.50;99.90
10123;DHT22;5101;49.038;8.710;2022-12-20T12:21:48;9.40;99.90
10123;DHT22;5101;49.038;8.710;2022-12-20T12:24:25;9.50;99.90
10123;DHT22;5101;49.038;8.710;2022-12-20T12:26:52;9.50;99.90
10123;DHT22;5101;49.038;8.710;2022-12-20T12:29:19;9.60;99.90
10123;DHT22;5101;49.038;8.710;2022-12-20T12:31:53;9.60;99.90
10123;DHT22;5101;49.038;8.710;2022-12-20T12:34:31;9.60;99.90
10123;DHT22;5101;49.038;8.710;2022-12-20T12:40:11;9.70;99.90
10123;DHT22;5101;49.038;8.710;2022-12-20T12:45:54;9.70;99.90
10123;DHT22;5101;49.038;8.710;2022-12-20T12:48:24;9.70;99.90
10123;DHT22;5101;49.038;8.710;2022-12-20T12:50:54;9.70;99.90
10123;DHT22;5101;49.038;8.710;2022-12-20T12:53:40;9.70;99.90
10123;DHT22;5101;49.038;8.710;2022-12-20T13:01:53;9.90;99.90
10123;DHT22;5101;49.038;8.710;2022-12-20T13:07:01;9.90;99.90
10123;DHT22;5101;49.038;8.710;2022-12-20T13:11:53;10.00;99.90
10123;DHT22;5101;49.038;8.710;2022-12-20T13:16:46;10.00;99.90
10123;DHT22;5101;49.038;8.710;2022-12-20T13:19:14;10.00;99.90
10123;DHT22;5101;49.038;8.710;2022-12-20T13:21:45;10.10;99.90
10123;DHT22;5101;49.038;8.710;2022-12-20T13:27:01;10.20;99.90
10123;DHT22;5101;49.038;8.710;2022-12-20T13:29:34;10.20;99.90
10123;DHT22;5101;49.038;8.710;2022-12-20T13:32:01;10.20;99.90
10123;DHT22;5101;49.038;8.710;2022-12-20T13:34:51;10.20;99.90
10123;DHT22;5101;49.038;8.710;2022-12-20T13:37:50;10.30;99.90
10123;DHT22;5101;49.038;8.710;2022-12-20T13:40:37;10.20;99.90
10123;DHT22;5101;49.038;8.710;2022-12-20T13:43:56;10.30;99.90
10123;DHT22;5101;49.038;8.710;2022-12-20T13:46:31;10.20;99.90
10123;DHT22;5101;49.038;8.710;2022-12-20T13:49:04;10.20;99.90
10123;DHT22;5101;49.038;8.710;2022-12-20T13:51:33;10.20;99.90
10123;DHT22;5101;49.038;8.710;2022-12-20T13:54:04;10.20;99.90
10123;DHT22;5101;49.038;8.710;2022-12-20T13:56:34;10.20;99.90
10123;DHT22;5101;49.038;8.710;2022-12-20T13:59:07;10.20;99.90
10123;DHT22;5101;49.038;8.710;2022-12-20T14:01:49;10.20;99.90
10123;DHT22;5101;49.038;8.710;2022-12-20T14:04:17;10.20;99.90
10123;DHT22;5101;49.038;8.710;2022-12-20T14:06:43;10.20;99.90
10123;DHT22;5101;49.038;8.710;2022-12-20T14:09:31;10.20;99.90
10123;DHT22;5101;49.038;8.710;2022-12-20T14:12:15;10.30;99.90
10123;DHT22;5101;49.038;8.710;2022-12-20T14:14:46;10.20;99.90
10123;DHT22;5101;49.038;8.710;2022-12-20T14:17:22;10.10;99.90
10123;DHT22;5101;49.038;8.710;2022-12-20T14:23:10;10.10;99.90
10123;DHT22;5101;49.038;8.710;2022-12-20T14:25:49;10.10;99.90
10123;DHT22;5101;49.038;8.710;2022-12-20T14:28:26;10.10;99.90
10123;DHT22;5101;49.038;8.710;2022-12-20T14:30:55;10.10;99.90
10123;DHT22;5101;49.038;8.710;2022-12-20T14:33:26;10.00;99.90
10123;DHT22;5101;49.038;8.710;2022-12-20T14:35:53;10.00;99.90
10123;DHT22;5101;49.038;8.710;2022-12-20T14:38:27;10.10;99.90
10123;DHT22;5101;49.038;8.710;2022-12-20T14:40:53;10.10;99.90
10123;DHT22;5101;49.038;8.710;2022-12-20T14:43:32;10.10;99.90
10123;DHT22;5101;49.038;8.710;2022-12-20T14:46:18;10.10;99.90
10123;DHT22;5101;49.038;8.710;2022-12-20T14:48:44;10.20;99.90
10123;DHT22;5101;49.038;8.710;2022-12-20T14:51:09;10.10;99.90
10123;DHT22;5101;49.038;8.710;2022-12-20T14:53:38;10.20;99.90
10123;DHT22;5101;49.038;8.710;2022-12-20T14:56:04;10.20;99.90
10123;DHT22;5101;49.038;8.710;2022-12-20T14:58:32;10.10;99.90
10123;DHT22;5101;49.038;8.710;2022-12-20T15:01:00;10.10;99.90
10123;DHT22;5101;49.038;8.710;2022-12-20T15:03:27;10.00;99.90
10123;DHT22;5101;49.038;8.710;2022-12-20T15:05:57;10.00;99.90
10123;DHT22;5101;49.038;8.710;2022-12-20T15:08:27;9.90;99.90
10123;DHT22;5101;49.038;8.710;2022-12-20T15:16:14;10.00;99.70
10123;DHT22;5101;49.038;8.710;2022-12-20T15:18:39;10.00;99.60
10123;DHT22;5101;49.038;8.710;2022-12-20T15:21:28;9.90;99.90
10123;DHT22;5101;49.038;8.710;2022-12-20T15:23:55;9.80;99.90
10123;DHT22;5101;49.038;8.710;2022-12-20T15:26:24;9.80;99.90
10123;DHT22;5101;49.038;8.710;2022-12-20T15:28:50;9.80;99.80
10123;DHT22;5101;49.038;8.710;2022-12-20T15:31:18;9.80;99.70
10123;DHT22;5101;49.038;8.710;2022-12-20T15:33:45;9.80;99.70
10123;DHT22;5101;49.038;8.710;2022-12-20T15:36:23;9.80;99.70
10123;DHT22;5101;49.038;8.710;2022-12-20T15:38:51;9.80;99.90
10123;DHT22;5101;49.038;8.710;2022-12-20T15:41:28;9.70;99.90
10123;DHT22;5101;49.038;8.710;2022-12-20T15:43:57;9.60;99.90
10123;DHT22;5101;49.038;8.710;2022-12-20T15:46:24;9.50;99.90
10123;DHT22;5101;49.038;8.710;2022-12-20T15:48:49;9.50;99.90
10123;DHT22;5101;49.038;8.710;2022-12-20T15:51:35;9.50;99.90
10123;DHT22;5101;49.038;8.710;2022-12-20T15:54:03;9.40;99.90
10123;DHT22;5101;49.038;8.710;2022-12-20T15:56:29;9.40;99.90
10123;DHT22;5101;49.038;8.710;2022-12-20T15:58:55;9.40;99.90
10123;DHT22;5101;49.038;8.710;2022-12-20T16:01:26;9.30;99.90
10123;DHT22;5101;49.038;8.710;2022-12-20T16:03:53;9.30;99.90
10123;DHT22;5101;49.038;8.710;2022-12-20T16:06:18;9.20;99.90
10123;DHT22;5101;49.038;8.710;2022-12-20T16:08:44;9.10;99.90
10123;DHT22;5101;49.038;8.710;2022-12-20T16:11:24;9.10;99.90
10123;DHT22;5101;49.038;8.710;2022-12-20T16:13:52;9.10;99.90
10123;DHT22;5101;49.038;8.710;2022-12-20T16:16:20;9.00;99.90
10123;DHT22;5101;49.038;8.710;2022-12-20T16:18:46;9.10;99.90
10123;DHT22;5101;49.038;8.710;2022-12-20T16:21:26;9.10;99.90
10123;DHT22;5101;49.038;8.710;2022-12-20T16:23:53;9.00;99.90
10123;DHT22;5101;49.038;8.710;2022-12-20T16:26:21;9.10;99.90
10123;DHT22;5101;49.038;8.710;2022-12-20T16:28:48;9.00;99.90
10123;DHT22;5101;49.038;8.710;2022-12-20T16:31:38;9.00;99.90
10123;DHT22;5101;49.038;8.710;2022-12-20T16:34:12;9.00;99.90
10123;DHT22;5101;49.038;8.710;2022-12-20T16:36:38;9.00;99.90
10123;DHT22;5101;49.038;8.710;2022-12-20T16:39:04;9.00;99.90
10123;DHT22;5101;49.038;8.710;2022-12-20T16:41:31;8.90;99.90
10123;DHT22;5101;49.038;8.710;2022-12-20T16:43:59;8.90;99.90
10123;DHT22;5101;49.038;8.710;2022-12-20T16:46:26;8.90;99.90
10123;DHT22;5101;49.038;8.710;2022-12-20T16:48:53;8.90;99.90
10123;DHT22;5101;49.038;8.710;2022-12-20T16:51:33;8.80;99.90
10123;DHT22;5101;49.038;8.710;2022-12-20T16:54:11;8.80;99.90
10123;DHT22;5101;49.038;8.710;2022-12-20T16:56:38;8.70;99.90
10123;DHT22;5101;49.038;8.710;2022-12-20T16:59:04;8.70;99.90
10123;DHT22;5101;49.038;8.710;2022-12-20T17:01:34;8.60;99.90
10123;DHT22;5101;49.038;8.710;2022-12-20T17:04:00;8.60;99.90
10123;DHT22;5101;49.038;8.710;2022-12-20T17:06:26;8.60;99.90
10123;DHT22;5101;49.038;8.710;2022-12-20T17:08:52;8.60;99.90
10123;DHT22;5101;49.038;8.710;2022-12-20T17:11:23;8.50;99.90
10123;DHT22;5101;49.038;8.710;2022-12-20T17:13:51;8.50;99.90
10123;DHT22;5101;49.038;8.710;2022-12-20T17:16:17;8.50;99.90
10123;DHT22;5101;49.038;8.710;2022-12-20T17:18:47;8.60;99.90
10123;DHT22;5101;49.038;8.710;2022-12-20T17:21:34;8.50;99.90
10123;DHT22;5101;49.038;8.710;2022-12-20T17:24:01;8.50;99.90
10123;DHT22;5101;49.038;8.710;2022-12-20T17:26:28;8.50;99.90
10123;DHT22;5101;49.038;8.710;2022-12-20T17:28:55;8.50;99.90
10123;DHT22;5101;49.038;8.710;2022-12-20T17:33:50;8.50;99.90
10123;DHT22;5101;49.038;8.710;2022-12-20T17:36:15;8.50;99.90
10123;DHT22;5101;49.038;8.710;2022-12-20T17:38:41;8.50;99.90
10123;DHT22;5101;49.038;8.710;2022-12-20T17:41:25;8.50;99.90
10123;DHT22;5101;49.038;8.710;2022-12-20T17:43:51;8.50;99.90